sensor_id;sensor_type;location;lat;lon;timestamp;pressure;altitude;pressure_sealevel;temperature;humidity
7333;BME280;3707;43.618;25.342;2024-02-15T00:00:51;100719.06;;;8.63;100.00
7333;BME280;3707;43.618;25.342;2024-02-15T00:03:19;100681.22;;;8.39;100.00
7333;BME280;3707;43.618;25.342;2024-02-15T00:05:46;100724.22;;;8.63;100.00
7333;BME280;3707;43.618;25.342;2024-02-15T00:08:13;100716.66;;;8.69;100.00
7333;BME280;3707;43.618;25.342;2024-02-15T00:10:41;100730.13;;;8.59;100.00
7333;BME280;3707;43.618;25.342;2024-02-15T00:13:08;100698.38;;;8.37;100.00
7333;BME280;3707;43.618;25.342;2024-02-15T00:15:35;100730.88;;;8.56;100.00
7333;BME280;3707;43.618;25.342;2024-02-15T00:18:02;100727.56;;;8.60;100.00
7333;BME280;3707;43.618;25.342;2024-02-15T00:20:30;100727.53;;;8.59;100.00
7333;BME280;3707;43.618;25.342;2024-02-15T00:22:59;100726.81;;;8.37;100.00
7333;BME280;3707;43.618;25.342;2024-02-15T00:25:26;100724.44;;;8.43;100.00
7333;BME280;3707;43.618;25.342;2024-02-15T00:27:53;100708.63;;;8.34;100.00
7333;BME280;3707;43.618;25.342;2024-02-15T00:30:19;100725.97;;;8.38;100.00
7333;BME280;3707;43.618;25.342;2024-02-15T00:32:46;100709.47;;;8.35;100.00
7333;BME280;3707;43.618;25.342;2024-02-15T00:35:13;100719.16;;;8.40;100.00
7333;BME280;3707;43.618;25.342;2024-02-15T00:37:41;100701.22;;;8.21;100.00
7333;BME280;3707;43.618;25.342;2024-02-15T00:40:08;100736.31;;;8.15;100.00
7333;BME280;3707;43.618;25.342;2024-02-15T00:42:35;100731.59;;;8.03;100.00
7333;BME280;3707;43.618;25.342;2024-02-15T00:45:03;100735.75;;;7.99;100.00
7333;BME280;3707;43.618;25.342;2024-02-15T00:47:30;100732.16;;;7.94;100.00
7333;BME280;3707;43.618;25.342;2024-02-15T00:49:58;100736.75;;;8.03;100.00
7333;BME280;3707;43.618;25.342;2024-02-15T00:52:25;100699.84;;;7.82;100.00
7333;BME280;3707;43.618;25.342;2024-02-15T00:54:53;100729.94;;;8.05;100.00
7333;BME280;3707;43.618;25.342;2024-02-15T00:57:20;100732.03;;;8.15;100.00
7333;BME280;3707;43.618;25.342;2024-02-15T00:59:47;100690.56;;;7.87;100.00
7333;BME280;3707;43.618;25.342;2024-02-15T01:02:14;100732.22;;;8.21;100.00
7333;BME280;3707;43.618;25.342;2024-02-15T01:04:40;100737.94;;;7.87;100.00
7333;BME280;3707;43.618;25.342;2024-02-15T01:07:08;100730.91;;;7.85;100.00
7333;BME280;3707;43.618;25.342;2024-02-15T01:09:35;100736.00;;;8.06;100.00
7333;BME280;3707;43.618;25.342;2024-02-15T01:12:03;100734.84;;;7.97;100.00
7333;BME280;3707;43.618;25.342;2024-02-15T01:14:30;100737.34;;;7.96;100.00
7333;BME280;3707;43.618;25.342;2024-02-15T01:16:57;100738.31;;;7.98;100.00
7333;BME280;3707;43.618;25.342;2024-02-15T01:19:24;100718.41;;;7.95;100.00
7333;BME280;3707;43.618;25.342;2024-02-15T01:21:51;100739.78;;;8.15;100.00
7333;BME280;3707;43.618;25.342;2024-02-15T01:24:19;100734.31;;;8.06;100.00
7333;BME280;3707;43.618;25.342;2024-02-15T01:26:45;100703.78;;;7.96;100.00
7333;BME280;3707;43.618;25.342;2024-02-15T01:29:14;100735.22;;;8.08;100.00
7333;BME280;3707;43.618;25.342;2024-02-15T01:31:42;100737.00;;;8.09;100.00
7333;BME280;3707;43.618;25.342;2024-02-15T01:34:10;100712.91;;;7.86;100.00
7333;BME280;3707;43.618;25.342;2024-02-15T01:36:36;100726.00;;;7.91;100.00
7333;BME280;3707;43.618;25.342;2024-02-15T01:39:03;100731.88;;;7.87;100.00
7333;BME280;3707;43.618;25.342;2024-02-15T01:41:30;100732.91;;;7.92;100.00
7333;BME280;3707;43.618;25.342;2024-02-15T01:43:57;100729.06;;;8.05;100.00
7333;BME280;3707;43.618;25.342;2024-02-15T01:46:25;100730.06;;;8.08;100.00
7333;BME280;3707;43.618;25.342;2024-02-15T01:48:52;100736.03;;;8.07;100.00
7333;BME280;3707;43.618;25.342;2024-02-15T01:51:19;100706.34;;;7.94;100.00
7333;BME280;3707;43.618;25.342;2024-02-15T01:53:45;100740.09;;;8.01;100.00
7333;BME280;3707;43.618;25.342;2024-02-15T01:56:13;100749.91;;;8.09;100.00
7333;BME280;3707;43.618;25.342;2024-02-15T01:58:41;100740.81;;;7.96;100.00
7333;BME280;3707;43.618;25.342;2024-02-15T02:01:09;100715.69;;;7.91;100.00
7333;BME280;3707;43.618;25.342;2024-02-15T02:03:39;100737.63;;;8.04;100.00
7333;BME280;3707;43.618;25.342;2024-02-15T02:06:05;100744.00;;;7.89;100.00
7333;BME280;3707;43.618;25.342;2024-02-15T02:08:33;100698.81;;;7.77;100.00
7333;BME280;3707;43.618;25.342;2024-02-15T02:11:00;100747.97;;;8.04;100.00
7333;BME280;3707;43.618;25.342;2024-02-15T02:13:29;100722.56;;;7.92;100.00
7333;BME280;3707;43.618;25.342;2024-02-15T02:15:56;100754.91;;;8.05;100.00
7333;BME280;3707;43.618;25.342;2024-02-15T02:18:25;100754.41;;;7.91;100.00
7333;BME280;3707;43.618;25.342;2024-02-15T02:20:53;100752.63;;;7.90;100.00
7333;BME280;3707;43.618;25.342;2024-02-15T02:23:21;100731.38;;;7.73;100.00
7333;BME280;3707;43.618;25.342;2024-02-15T02:25:54;100762.75;;;7.84;100.00
7333;BME280;3707;43.618;25.342;2024-02-15T02:28:21;100763.56;;;7.83;100.00
7333;BME280;3707;43.618;25.342;2024-02-15T02:30:48;100756.19;;;7.70;100.00
7333;BME280;3707;43.618;25.342;2024-02-15T02:33:15;100763.00;;;7.68;100.00
7333;BME280;3707;43.618;25.342;2024-02-15T02:35:44;100712.34;;;7.47;100.00
7333;BME280;3707;43.618;25.342;2024-02-15T02:38:12;100758.94;;;7.74;100.00
7333;BME280;3707;43.618;25.342;2024-02-15T02:40:40;100763.00;;;7.68;100.00
7333;BME280;3707;43.618;25.342;2024-02-15T02:43:08;100760.88;;;7.58;100.00
7333;BME280;3707;43.618;25.342;2024-02-15T02:45:35;100743.94;;;7.42;100.00
7333;BME280;3707;43.618;25.342;2024-02-15T02:48:02;100748.34;;;7.44;100.00
7333;BME280;3707;43.618;25.342;2024-02-15T02:50:28;100755.03;;;7.39;100.00
7333;BME280;3707;43.618;25.342;2024-02-15T02:52:55;100755.63;;;7.32;100.00
7333;BME280;3707;43.618;25.342;2024-02-15T02:55:22;100725.78;;;7.17;100.00
7333;BME280;3707;43.618;25.342;2024-02-15T02:57:49;100749.53;;;7.30;100.00
7333;BME280;3707;43.618;25.342;2024-02-15T03:00:18;100754.81;;;7.33;100.00
7333;BME280;3707;43.618;25.342;2024-02-15T03:02:46;100754.44;;;7.24;100.00
7333;BME280;3707;43.618;25.342;2024-02-15T03:05:13;100756.09;;;7.22;100.00
7333;BME280;3707;43.618;25.342;2024-02-15T03:07:40;100746.13;;;7.09;100.00
7333;BME280;3707;43.618;25.342;2024-02-15T03:10:08;100758.25;;;7.12;100.00
7333;BME280;3707;43.618;25.342;2024-02-15T03:12:35;100749.59;;;7.10;100.00
7333;BME280;3707;43.618;25.342;2024-02-15T03:15:02;100727.28;;;6.89;100.00
7333;BME280;3707;43.618;25.342;2024-02-15T03:17:31;100752.75;;;7.03;100.00
7333;BME280;3707;43.618;25.342;2024-02-15T03:19:57;100752.31;;;6.92;100.00
7333;BME280;3707;43.618;25.342;2024-02-15T03:22:24;100747.00;;;6.89;100.00
7333;BME280;3707;43.618;25.342;2024-02-15T03:24:54;100739.97;;;6.85;100.00
7333;BME280;3707;43.618;25.342;2024-02-15T03:27:21;100754.38;;;6.80;100.00
7333;BME280;3707;43.618;25.342;2024-02-15T03:29:48;100740.19;;;6.69;100.00
7333;BME280;3707;43.618;25.342;2024-02-15T03:32:16;100732.00;;;6.58;100.00
7333;BME280;3707;43.618;25.342;2024-02-15T03:34:44;100661.47;;;6.13;100.00
7333;BME280;3707;43.618;25.342;2024-02-15T03:37:11;100723.59;;;6.41;100.00
7333;BME280;3707;43.618;25.342;2024-02-15T03:39:38;100748.47;;;6.41;100.00
7333;BME280;3707;43.618;25.342;2024-02-15T03:42:05;100750.16;;;6.40;100.00
7333;BME280;3707;43.618;25.342;2024-02-15T03:44:32;100749.91;;;6.34;100.00
7333;BME280;3707;43.618;25.342;2024-02-15T03:46:59;100748.22;;;6.35;100.00
7333;BME280;3707;43.618;25.342;2024-02-15T03:49:25;100749.44;;;6.24;100.00
7333;BME280;3707;43.618;25.342;2024-02-15T03:51:53;100753.97;;;6.29;100.00
7333;BME280;3707;43.618;25.342;2024-02-15T03:54:20;100755.44;;;6.24;100.00
7333;BME280;3707;43.618;25.342;2024-02-15T03:56:49;100749.28;;;6.21;100.00
7333;BME280;3707;43.618;25.342;2024-02-15T03:59:17;100751.69;;;6.16;100.00
7333;BME280;3707;43.618;25.342;2024-02-15T04:01:45;100751.69;;;6.16;100.00
7333;BME280;3707;43.618;25.342;2024-02-15T04:04:12;100753.59;;;6.20;100.00
7333;BME280;3707;43.618;25.342;2024-02-15T04:06:39;100762.13;;;6.19;100.00
7333;BME280;3707;43.618;25.342;2024-02-15T04:09:09;100757.78;;;6.18;100.00
7333;BME280;3707;43.618;25.342;2024-02-15T04:11:37;100736.50;;;6.03;100.00
7333;BME280;3707;43.618;25.342;2024-02-15T04:14:04;100759.53;;;6.19;100.00
7333;BME280;3707;43.618;25.342;2024-02-15T04:16:30;100753.03;;;6.08;100.00
7333;BME280;3707;43.618;25.342;2024-02-15T04:18:59;100769.16;;;6.23;100.00
7333;BME280;3707;43.618;25.342;2024-02-15T04:21:26;100766.16;;;6.33;100.00
7333;BME280;3707;43.618;25.342;2024-02-15T04:23:53;100772.41;;;6.38;100.00
7333;BME280;3707;43.618;25.342;2024-02-15T04:26:21;100768.19;;;6.40;100.00
7333;BME280;3707;43.618;25.342;2024-02-15T04:28:52;100774.78;;;6.34;100.00
7333;BME280;3707;43.618;25.342;2024-02-15T04:31:19;100774.00;;;6.36;100.00
7333;BME280;3707;43.618;25.342;2024-02-15T04:33:52;100765.75;;;6.24;100.00
7333;BME280;3707;43.618;25.342;2024-02-15T04:36:19;100773.69;;;6.29;100.00
7333;BME280;3707;43.618;25.342;2024-02-15T04:38:49;100754.41;;;6.19;100.00
7333;BME280;3707;43.618;25.342;2024-02-15T04:41:16;100768.41;;;6.26;100.00
7333;BME280;3707;43.618;25.342;2024-02-15T04:43:47;100756.22;;;6.22;100.00
7333;BME280;3707;43.618;25.342;2024-02-15T04:46:14;100773.69;;;6.29;100.00
7333;BME280;3707;43.618;25.342;2024-02-15T04:48:40;100777.13;;;6.29;100.00
7333;BME280;3707;43.618;25.342;2024-02-15T04:51:08;100762.13;;;6.19;100.00
7333;BME280;3707;43.618;25.342;2024-02-15T04:53:35;100785.53;;;6.25;100.00
7333;BME280;3707;43.618;25.342;2024-02-15T04:56:04;100771.66;;;6.22;100.00
7333;BME280;3707;43.618;25.342;2024-02-15T04:58:37;100779.47;;;6.23;100.00
7333;BME280;3707;43.618;25.342;2024-02-15T05:01:13;100773.91;;;6.14;100.00
7333;BME280;3707;43.618;25.342;2024-02-15T05:03:39;100784.06;;;6.11;100.00
7333;BME280;3707;43.618;25.342;2024-02-15T05:06:07;100783.19;;;6.11;100.00
7333;BME280;3707;43.618;25.342;2024-02-15T05:08:35;100752.09;;;5.87;100.00
7333;BME280;3707;43.618;25.342;2024-02-15T05:11:03;100797.44;;;6.03;100.00
7333;BME280;3707;43.618;25.342;2024-02-15T05:13:32;100802.72;;;6.06;100.00
7333;BME280;3707;43.618;25.342;2024-02-15T05:15:58;100800.06;;;6.04;100.00
7333;BME280;3707;43.618;25.342;2024-02-15T05:18:30;100802.88;;;6.10;100.00
7333;BME280;3707;43.618;25.342;2024-02-15T05:20:56;100799.13;;;6.02;100.00
7333;BME280;3707;43.618;25.342;2024-02-15T05:23:23;100773.34;;;5.83;100.00
7333;BME280;3707;43.618;25.342;2024-02-15T05:25:50;100782.81;;;5.84;100.00
7333;BME280;3707;43.618;25.342;2024-02-15T05:28:19;100815.78;;;5.91;100.00
7333;BME280;3707;43.618;25.342;2024-02-15T05:31:08;100815.03;;;5.93;100.00
7333;BME280;3707;43.618;25.342;2024-02-15T05:33:37;100819.91;;;5.87;100.00
7333;BME280;3707;43.618;25.342;2024-02-15T05:36:04;100810.91;;;5.79;100.00
7333;BME280;3707;43.618;25.342;2024-02-15T05:38:31;100805.34;;;5.70;100.00
7333;BME280;3707;43.618;25.342;2024-02-15T05:40:57;100821.06;;;5.76;100.00
7333;BME280;3707;43.618;25.342;2024-02-15T05:43:24;100827.63;;;5.70;100.00
7333;BME280;3707;43.618;25.342;2024-02-15T05:45:51;100831.38;;;5.59;100.00
7333;BME280;3707;43.618;25.342;2024-02-15T05:48:18;100836.75;;;6.00;100.00
7333;BME280;3707;43.618;25.342;2024-02-15T05:50:48;100836.84;;;6.21;100.00
7333;BME280;3707;43.618;25.342;2024-02-15T05:53:14;100840.84;;;6.14;100.00
7333;BME280;3707;43.618;25.342;2024-02-15T05:55:41;100855.19;;;6.28;100.00
7333;BME280;3707;43.618;25.342;2024-02-15T05:58:09;100854.66;;;6.35;100.00
7333;BME280;3707;43.618;25.342;2024-02-15T06:00:37;100854.06;;;6.41;100.00
7333;BME280;3707;43.618;25.342;2024-02-15T06:03:06;100863.06;;;6.51;100.00
7333;BME280;3707;43.618;25.342;2024-02-15T06:05:34;100858.72;;;6.69;100.00
7333;BME280;3707;43.618;25.342;2024-02-15T06:08:03;100843.44;;;6.73;100.00
7333;BME280;3707;43.618;25.342;2024-02-15T06:10:30;100854.81;;;6.78;100.00
7333;BME280;3707;43.618;25.342;2024-02-15T06:12:57;100868.16;;;6.89;100.00
7333;BME280;3707;43.618;25.342;2024-02-15T06:15:24;100846.13;;;6.56;100.00
7333;BME280;3707;43.618;25.342;2024-02-15T06:17:52;100868.47;;;6.96;100.00
7333;BME280;3707;43.618;25.342;2024-02-15T06:20:19;100864.03;;;7.13;100.00
7333;BME280;3707;43.618;25.342;2024-02-15T06:22:47;100874.72;;;7.22;100.00
7333;BME280;3707;43.618;25.342;2024-02-15T06:25:15;100875.84;;;7.29;100.00
7333;BME280;3707;43.618;25.342;2024-02-15T06:27:46;100885.16;;;7.25;100.00
7333;BME280;3707;43.618;25.342;2024-02-15T06:30:14;100896.09;;;6.99;100.00
7333;BME280;3707;43.618;25.342;2024-02-15T06:32:58;100857.78;;;6.47;100.00
7333;BME280;3707;43.618;25.342;2024-02-15T06:35:42;100890.44;;;6.68;100.00
7333;BME280;3707;43.618;25.342;2024-02-15T06:38:27;100851.22;;;6.35;100.00
7333;BME280;3707;43.618;25.342;2024-02-15T06:41:13;100893.56;;;6.61;100.00
7333;BME280;3707;43.618;25.342;2024-02-15T06:43:40;100894.66;;;6.66;100.00
7333;BME280;3707;43.618;25.342;2024-02-15T06:46:07;100890.84;;;7.17;100.00
7333;BME280;3707;43.618;25.342;2024-02-15T06:48:36;100873.91;;;6.63;100.00
7333;BME280;3707;43.618;25.342;2024-02-15T06:51:03;100864.53;;;6.84;100.00
7333;BME280;3707;43.618;25.342;2024-02-15T06:53:31;100899.09;;;6.89;100.00
7333;BME280;3707;43.618;25.342;2024-02-15T06:55:57;100902.66;;;6.92;100.00
7333;BME280;3707;43.618;25.342;2024-02-15T06:58:26;100886.75;;;6.82;100.00
7333;BME280;3707;43.618;25.342;2024-02-15T07:00:53;100901.16;;;6.77;100.00
7333;BME280;3707;43.618;25.342;2024-02-15T07:03:20;100906.00;;;6.90;100.00
7333;BME280;3707;43.618;25.342;2024-02-15T07:05:48;100900.66;;;6.85;100.00
7333;BME280;3707;43.618;25.342;2024-02-15T07:08:15;100856.78;;;6.84;100.00
7333;BME280;3707;43.618;25.342;2024-02-15T07:10:42;100885.34;;;7.30;100.00
7333;BME280;3707;43.618;25.342;2024-02-15T07:13:09;100899.19;;;7.53;100.00
7333;BME280;3707;43.618;25.342;2024-02-15T07:15:37;100882.97;;;7.57;100.00
7333;BME280;3707;43.618;25.342;2024-02-15T07:18:04;100898.28;;;7.73;100.00
7333;BME280;3707;43.618;25.342;2024-02-15T07:20:32;100899.47;;;7.60;100.00
7333;BME280;3707;43.618;25.342;2024-02-15T07:22:59;100872.06;;;7.41;100.00
7333;BME280;3707;43.618;25.342;2024-02-15T07:25:26;100892.63;;;7.61;100.00
7333;BME280;3707;43.618;25.342;2024-02-15T07:27:53;100916.03;;;7.65;100.00
7333;BME280;3707;43.618;25.342;2024-02-15T07:30:20;100872.06;;;7.41;100.00
7333;BME280;3707;43.618;25.342;2024-02-15T07:32:49;100887.66;;;7.65;100.00
7333;BME280;3707;43.618;25.342;2024-02-15T07:35:16;100914.81;;;7.78;100.00
7333;BME280;3707;43.618;25.342;2024-02-15T07:37:51;100892.31;;;7.74;100.00
7333;BME280;3707;43.618;25.342;2024-02-15T07:40:21;100897.44;;;7.96;100.00
7333;BME280;3707;43.618;25.342;2024-02-15T07:42:48;100911.91;;;7.91;100.00
7333;BME280;3707;43.618;25.342;2024-02-15T07:45:15;100915.72;;;7.58;100.00
7333;BME280;3707;43.618;25.342;2024-02-15T07:47:43;100897.53;;;7.55;100.00
7333;BME280;3707;43.618;25.342;2024-02-15T07:50:15;100912.53;;;7.85;100.00
7333;BME280;3707;43.618;25.342;2024-02-15T07:52:45;100894.53;;;7.44;100.00
7333;BME280;3707;43.618;25.342;2024-02-15T07:55:12;100910.19;;;7.69;100.00
7333;BME280;3707;43.618;25.342;2024-02-15T07:57:39;100882.97;;;7.77;100.00
7333;BME280;3707;43.618;25.342;2024-02-15T08:00:07;100879.25;;;7.71;100.00
7333;BME280;3707;43.618;25.342;2024-02-15T08:02:35;100908.59;;;7.73;100.00
7333;BME280;3707;43.618;25.342;2024-02-15T08:05:03;100881.63;;;7.44;100.00
7333;BME280;3707;43.618;25.342;2024-02-15T08:07:37;100902.09;;;7.82;100.00
7333;BME280;3707;43.618;25.342;2024-02-15T08:10:05;100908.91;;;7.80;100.00
7333;BME280;3707;43.618;25.342;2024-02-15T08:12:38;100911.09;;;7.71;100.00
7333;BME280;3707;43.618;25.342;2024-02-15T08:15:05;100911.09;;;7.71;100.00
7333;BME280;3707;43.618;25.342;2024-02-15T08:17:37;100899.47;;;7.81;100.00
7333;BME280;3707;43.618;25.342;2024-02-15T08:20:06;100901.09;;;7.79;100.00
7333;BME280;3707;43.618;25.342;2024-02-15T08:22:34;100900.34;;;7.61;100.00
7333;BME280;3707;43.618;25.342;2024-02-15T08:25:02;100904.94;;;7.68;100.00
7333;BME280;3707;43.618;25.342;2024-02-15T08:27:30;100901.03;;;7.77;100.00
7333;BME280;3707;43.618;25.342;2024-02-15T08:29:58;100898.84;;;7.66;100.00
7333;BME280;3707;43.618;25.342;2024-02-15T08:32:24;100897.69;;;7.80;100.00
7333;BME280;3707;43.618;25.342;2024-02-15T08:34:51;100892.75;;;7.86;100.00
7333;BME280;3707;43.618;25.342;2024-02-15T08:37:18;100871.19;;;7.84;100.00
7333;BME280;3707;43.618;25.342;2024-02-15T08:39:45;100893.56;;;8.07;100.00
7333;BME280;3707;43.618;25.342;2024-02-15T08:42:13;100894.56;;;8.11;100.00
7333;BME280;3707;43.618;25.342;2024-02-15T08:44:40;100895.94;;;8.23;100.00
7333;BME280;3707;43.618;25.342;2024-02-15T08:47:06;100847.97;;;8.08;100.00
7333;BME280;3707;43.618;25.342;2024-02-15T08:49:33;100896.19;;;8.53;100.00
7333;BME280;3707;43.618;25.342;2024-02-15T08:52:00;100892.78;;;8.30;100.00
7333;BME280;3707;43.618;25.342;2024-02-15T08:54:27;100878.91;;;8.28;100.00
7333;BME280;3707;43.618;25.342;2024-02-15T08:56:54;100895.78;;;8.42;100.00
7333;BME280;3707;43.618;25.342;2024-02-15T08:59:22;100891.34;;;8.38;100.00
7333;BME280;3707;43.618;25.342;2024-02-15T09:01:50;100890.56;;;8.65;100.00
7333;BME280;3707;43.618;25.342;2024-02-15T09:04:17;100860.38;;;8.64;100.00
7333;BME280;3707;43.618;25.342;2024-02-15T09:06:44;100884.22;;;8.55;100.00
7333;BME280;3707;43.618;25.342;2024-02-15T09:09:10;100798.09;;;8.09;100.00
7333;BME280;3707;43.618;25.342;2024-02-15T09:11:37;100878.75;;;8.48;100.00
7333;BME280;3707;43.618;25.342;2024-02-15T09:14:04;100893.38;;;8.71;100.00
7333;BME280;3707;43.618;25.342;2024-02-15T09:16:32;100895.06;;;8.45;100.00
7333;BME280;3707;43.618;25.342;2024-02-15T09:18:59;100895.44;;;8.56;100.00
7333;BME280;3707;43.618;25.342;2024-02-15T09:21:27;100889.09;;;8.25;100.00
7333;BME280;3707;43.618;25.342;2024-02-15T09:23:55;100892.19;;;8.37;100.00
7333;BME280;3707;43.618;25.342;2024-02-15T09:26:21;100888.03;;;8.42;100.00
7333;BME280;3707;43.618;25.342;2024-02-15T09:28:48;100891.69;;;8.48;100.00
7333;BME280;3707;43.618;25.342;2024-02-15T09:31:15;100894.81;;;8.63;100.00
7333;BME280;3707;43.618;25.342;2024-02-15T09:33:43;100882.94;;;8.93;100.00
7333;BME280;3707;43.618;25.342;2024-02-15T09:36:11;100817.94;;;8.57;100.00
7333;BME280;3707;43.618;25.342;2024-02-15T09:38:39;100878.31;;;9.08;100.00
7333;BME280;3707;43.618;25.342;2024-02-15T09:41:06;100885.34;;;9.12;100.00
7333;BME280;3707;43.618;25.342;2024-02-15T09:43:35;100891.88;;;9.01;100.00
7333;BME280;3707;43.618;25.342;2024-02-15T09:46:02;100885.63;;;8.96;100.00
7333;BME280;3707;43.618;25.342;2024-02-15T09:48:32;100877.84;;;9.20;100.00
7333;BME280;3707;43.618;25.342;2024-02-15T09:51:01;100857.63;;;9.08;100.00
7333;BME280;3707;43.618;25.342;2024-02-15T09:53:28;100877.78;;;9.18;100.00
7333;BME280;3707;43.618;25.342;2024-02-15T09:55:55;100850.78;;;9.10;100.00
7333;BME280;3707;43.618;25.342;2024-02-15T09:58:29;100874.66;;;9.28;100.00
7333;BME280;3707;43.618;25.342;2024-02-15T10:01:00;100874.00;;;9.34;100.00
7333;BME280;3707;43.618;25.342;2024-02-15T10:03:32;100874.34;;;9.44;100.00
7333;BME280;3707;43.618;25.342;2024-02-15T10:06:01;100870.09;;;9.46;100.00
7333;BME280;3707;43.618;25.342;2024-02-15T10:08:29;100869.81;;;9.37;100.00
7333;BME280;3707;43.618;25.342;2024-02-15T10:11:10;100865.00;;;9.50;100.00
7333;BME280;3707;43.618;25.342;2024-02-15T10:13:37;100865.16;;;9.54;100.00
7333;BME280;3707;43.618;25.342;2024-02-15T10:16:15;100872.28;;;9.34;100.00
7333;BME280;3707;43.618;25.342;2024-02-15T10:18:42;100859.28;;;9.33;100.00
7333;BME280;3707;43.618;25.342;2024-02-15T10:21:23;100852.78;;;9.45;100.00
7333;BME280;3707;43.618;25.342;2024-02-15T10:24:02;100853.97;;;9.55;100.00
7333;BME280;3707;43.618;25.342;2024-02-15T10:26:30;100848.81;;;9.57;100.00
7333;BME280;3707;43.618;25.342;2024-02-15T10:29:08;100844.72;;;9.63;100.00
7333;BME280;3707;43.618;25.342;2024-02-15T10:31:37;100841.03;;;9.55;100.00
7333;BME280;3707;43.618;25.342;2024-02-15T10:34:05;100851.25;;;9.79;100.00
7333;BME280;3707;43.618;25.342;2024-02-15T10:36:34;100832.47;;;9.86;100.00
7333;BME280;3707;43.618;25.342;2024-02-15T10:39:11;100823.78;;;9.56;100.00
7333;BME280;3707;43.618;25.342;2024-02-15T10:41:43;100827.03;;;9.77;100.00
7333;BME280;3707;43.618;25.342;2024-02-15T10:44:15;100834.25;;;9.87;100.00
7333;BME280;3707;43.618;25.342;2024-02-15T10:46:44;100824.13;;;9.96;100.00
7333;BME280;3707;43.618;25.342;2024-02-15T10:49:12;100831.66;;;10.15;100.00
7333;BME280;3707;43.618;25.342;2024-02-15T10:51:43;100833.06;;;10.34;100.00
7333;BME280;3707;43.618;25.342;2024-02-15T10:54:12;100834.69;;;10.30;100.00
7333;BME280;3707;43.618;25.342;2024-02-15T10:56:43;100795.97;;;10.36;100.00
7333;BME280;3707;43.618;25.342;2024-02-15T10:59:15;100827.72;;;10.61;100.00
7333;BME280;3707;43.618;25.342;2024-02-15T11:01:44;100826.16;;;10.66;100.00
7333;BME280;3707;43.618;25.342;2024-02-15T11:04:14;100828.66;;;10.63;100.00
7333;BME280;3707;43.618;25.342;2024-02-15T11:06:43;100825.13;;;10.59;100.00
7333;BME280;3707;43.618;25.342;2024-02-15T11:09:11;100818.63;;;11.47;100.00
7333;BME280;3707;43.618;25.342;2024-02-15T11:11:39;100818.19;;;10.92;100.00
7333;BME280;3707;43.618;25.342;2024-02-15T11:14:26;100736.75;;;10.52;100.00
7333;BME280;3707;43.618;25.342;2024-02-15T11:16:54;100818.34;;;10.99;100.00
7333;BME280;3707;43.618;25.342;2024-02-15T11:19:44;100819.13;;;11.30;100.00
7333;BME280;3707;43.618;25.342;2024-02-15T11:22:15;100813.97;;;11.32;100.00
7333;BME280;3707;43.618;25.342;2024-02-15T11:24:46;100820.41;;;11.48;100.00
7333;BME280;3707;43.618;25.342;2024-02-15T11:27:24;100815.84;;;11.37;100.00
7333;BME280;3707;43.618;25.342;2024-02-15T11:29:53;100785.84;;;11.14;100.00
7333;BME280;3707;43.618;25.342;2024-02-15T11:32:42;100815.09;;;11.43;100.00
7333;BME280;3707;43.618;25.342;2024-02-15T11:35:15;100805.47;;;11.39;100.00
7333;BME280;3707;43.618;25.342;2024-02-15T11:37:54;100813.41;;;11.45;100.00
7333;BME280;3707;43.618;25.342;2024-02-15T11:40:24;100807.88;;;11.31;100.00
7333;BME280;3707;43.618;25.342;2024-02-15T11:42:53;100782.94;;;11.36;100.00
7333;BME280;3707;43.618;25.342;2024-02-15T11:45:20;100782.69;;;11.65;100.00
7333;BME280;3707;43.618;25.342;2024-02-15T11:47:48;100796.28;;;11.92;100.00
7333;BME280;3707;43.618;25.342;2024-02-15T11:50:17;100781.84;;;12.05;100.00
7333;BME280;3707;43.618;25.342;2024-02-15T11:52:46;100809.06;;;12.22;99.07
7333;BME280;3707;43.618;25.342;2024-02-15T11:55:18;100781.34;;;12.22;97.04
7333;BME280;3707;43.618;25.342;2024-02-15T11:57:54;100789.06;;;12.19;96.65
7333;BME280;3707;43.618;25.342;2024-02-15T12:00:28;100799.63;;;12.27;97.17
7333;BME280;3707;43.618;25.342;2024-02-15T12:03:14;100799.53;;;12.24;94.16
7333;BME280;3707;43.618;25.342;2024-02-15T12:05:59;100789.50;;;11.99;91.88
7333;BME280;3707;43.618;25.342;2024-02-15T12:08:44;100759.44;;;12.11;91.35
7333;BME280;3707;43.618;25.342;2024-02-15T12:11:31;100791.38;;;12.06;89.57
7333;BME280;3707;43.618;25.342;2024-02-15T12:14:15;100798.28;;;12.47;88.92
7333;BME280;3707;43.618;25.342;2024-02-15T12:17:04;100780.59;;;11.86;90.89
7333;BME280;3707;43.618;25.342;2024-02-15T12:19:49;100798.47;;;12.13;93.42
7333;BME280;3707;43.618;25.342;2024-02-15T12:22:18;100790.56;;;12.52;89.87
7333;BME280;3707;43.618;25.342;2024-02-15T12:24:53;100794.31;;;12.66;87.55
7333;BME280;3707;43.618;25.342;2024-02-15T12:27:23;100745.66;;;12.63;85.06
7333;BME280;3707;43.618;25.342;2024-02-15T12:29:56;100784.25;;;12.88;81.26
7333;BME280;3707;43.618;25.342;2024-02-15T12:32:23;100785.56;;;12.64;84.63
7333;BME280;3707;43.618;25.342;2024-02-15T12:34:51;100787.88;;;12.49;83.81
7333;BME280;3707;43.618;25.342;2024-02-15T12:37:18;100783.59;;;12.51;80.81
7333;BME280;3707;43.618;25.342;2024-02-15T12:39:46;100784.97;;;12.30;81.39
7333;BME280;3707;43.618;25.342;2024-02-15T12:42:14;100777.06;;;12.26;82.22
7333;BME280;3707;43.618;25.342;2024-02-15T12:44:44;100793.84;;;12.00;83.74
7333;BME280;3707;43.618;25.342;2024-02-15T12:47:21;100769.44;;;11.91;86.06
7333;BME280;3707;43.618;25.342;2024-02-15T12:49:50;100781.63;;;11.55;86.02
7333;BME280;3707;43.618;25.342;2024-02-15T12:52:36;100789.84;;;12.15;85.53
7333;BME280;3707;43.618;25.342;2024-02-15T12:55:11;100759.00;;;12.33;83.83
7333;BME280;3707;43.618;25.342;2024-02-15T12:57:39;100760.78;;;12.36;83.73
7333;BME280;3707;43.618;25.342;2024-02-15T13:00:09;100789.66;;;12.50;83.05
7333;BME280;3707;43.618;25.342;2024-02-15T13:02:44;100778.31;;;12.45;84.52
7333;BME280;3707;43.618;25.342;2024-02-15T13:05:11;100792.25;;;12.48;83.47
7333;BME280;3707;43.618;25.342;2024-02-15T13:07:39;100784.63;;;12.59;81.79
7333;BME280;3707;43.618;25.342;2024-02-15T13:10:06;100788.06;;;12.58;79.68